createdAt,value
2023-02-03T00:04:56.774Z,101206.78
2023-02-03T00:10:04.888Z,101207.56
2023-02-03T00:15:12.338Z,101208.38
2023-02-03T00:20:18.915Z,101211.66
2023-02-03T00:25:27.209Z,101217.56
2023-02-03T00:30:35.630Z,101231.94
2023-02-03T00:35:42.147Z,101241.31
2023-02-03T00:40:56.418Z,101234.50
2023-02-03T00:46:02.836Z,101233.50
2023-02-03T00:51:09.144Z,101234.38
2023-02-03T00:56:16.959Z,101237.94
2023-02-03T01:01:23.849Z,101241.25
2023-02-03T01:06:30.393Z,101253.28
2023-02-03T01:11:38.266Z,101244.63
2023-02-03T01:16:44.534Z,101241.88
2023-02-03T01:21:50.695Z,101239.03
2023-02-03T01:26:58.286Z,101237.06
2023-02-03T01:32:04.875Z,101233.59
2023-02-03T01:37:10.983Z,101223.13
2023-02-03T01:42:18.855Z,101226.41
2023-02-03T01:47:32.437Z,101221.25
2023-02-03T01:52:40.703Z,101217.56
2023-02-03T01:57:53.720Z,101209.78
2023-02-03T02:03:02.813Z,101214.81
2023-02-03T02:08:12.747Z,101206.16
2023-02-03T02:13:22.551Z,101196.47
2023-02-03T02:18:49.951Z,101203.19
2023-02-03T02:24:43.046Z,101192.72
2023-02-03T02:30:38.793Z,101181.44
2023-02-03T02:35:59.218Z,101176.19
2023-02-03T02:41:12.603Z,101179.56
2023-02-03T02:46:34.456Z,101179.56
2023-02-03T02:51:44.180Z,101175.97
2023-02-03T02:56:57.964Z,101176.78
2023-02-03T03:02:04.265Z,101187.00
2023-02-03T03:07:15.827Z,101185.22
2023-02-03T03:12:26.512Z,101183.28
2023-02-03T03:17:36.461Z,101182.41
2023-02-03T03:22:49.335Z,101172.06
2023-02-03T03:28:04.629Z,101160.00
2023-02-03T03:33:12.343Z,101160.72
2023-02-03T03:38:32.219Z,101157.09
2023-02-03T03:43:44.269Z,101149.13
2023-02-03T03:48:57.127Z,101143.09
2023-02-03T03:54:09.148Z,101149.97
2023-02-03T03:59:19.159Z,101158.97
2023-02-03T04:04:27.815Z,101163.00
2023-02-03T04:09:37.440Z,101167.25
2023-02-03T04:14:43.853Z,101166.28
2023-02-03T04:19:50.788Z,101164.41
2023-02-03T04:25:00.833Z,101158.50
2023-02-03T04:30:10.693Z,101164.59
2023-02-03T04:35:17.606Z,101161.31
2023-02-03T04:40:25.525Z,101145.81
2023-02-03T04:45:31.975Z,101135.47
2023-02-03T04:50:38.403Z,101133.84
2023-02-03T04:55:49.333Z,101126.66
2023-02-03T05:00:57.739Z,101126.47
2023-02-03T05:06:05.779Z,101127.16
2023-02-03T05:11:13.545Z,101119.13
2023-02-03T05:16:19.917Z,101111.97
2023-02-03T05:21:26.251Z,101107.88
2023-02-03T05:26:33.866Z,101106.38
2023-02-03T05:31:40.107Z,101103.28
2023-02-03T05:36:47.302Z,101096.38
2023-02-03T05:41:58.271Z,101087.56
2023-02-03T05:47:04.921Z,101082.34
2023-02-03T05:52:11.354Z,101082.16
2023-02-03T05:57:19.670Z,101078.72
2023-02-03T06:02:25.929Z,101069.13
2023-02-03T06:07:32.252Z,101074.25
2023-02-03T06:12:41.644Z,101062.31
2023-02-03T06:17:48.958Z,101065.72
2023-02-03T06:22:55.152Z,101065.81
2023-02-03T06:28:04.916Z,101061.47
2023-02-03T06:33:11.427Z,101048.00
2023-02-03T06:38:17.890Z,101041.28
2023-02-03T06:43:26.760Z,101021.78
2023-02-03T06:48:32.843Z,101011.53
2023-02-03T06:53:39.283Z,101003.09
2023-02-03T06:58:47.965Z,100984.38
2023-02-03T07:03:55.107Z,100980.22
2023-02-03T07:09:03.984Z,100965.09
2023-02-03T07:14:11.388Z,100949.09
2023-02-03T07:19:17.562Z,100961.31
2023-02-03T07:24:28.680Z,100956.41
2023-02-03T07:29:36.628Z,100944.53
2023-02-03T07:34:42.983Z,100938.66
2023-02-03T07:39:49.272Z,100915.81
2023-02-03T07:44:58.276Z,100916.03
2023-02-03T07:50:07.463Z,100904.31
2023-02-03T07:55:14.385Z,100899.47
2023-02-03T08:00:23.874Z,100897.06
2023-02-03T08:05:30.569Z,100888.72
2023-02-03T08:10:36.996Z,100885.41
2023-02-03T08:15:45.093Z,100875.31
2023-02-03T08:20:56.039Z,100860.84
2023-02-03T08:26:02.611Z,100855.84
2023-02-03T08:31:14.379Z,100844.88
2023-02-03T08:36:20.897Z,100833.88
2023-02-03T08:41:27.193Z,100818.63
2023-02-03T08:46:36.121Z,100805.94
2023-02-03T08:51:42.195Z,100792.41
2023-02-03T08:56:48.694Z,100787.44
2023-02-03T09:01:56.848Z,100782.47
2023-02-03T09:07:04.819Z,100775.91
2023-02-03T09:12:13.363Z,100755.63
2023-02-03T09:17:21.209Z,100747.88
2023-02-03T09:22:27.858Z,100730.81
2023-02-03T09:27:34.961Z,100718.84
2023-02-03T09:32:43.030Z,100714.59
2023-02-03T09:37:49.520Z,100694.16
2023-02-03T09:43:13.103Z,100672.78
2023-02-03T09:48:26.640Z,100658.28
2023-02-03T09:53:40.315Z,100642.94
2023-02-03T09:58:47.879Z,100631.91
2023-02-03T10:04:03.729Z,100620.91
2023-02-03T10:09:28.134Z,100605.56
2023-02-03T10:14:52.052Z,100585.06
2023-02-03T10:20:08.652Z,100573.94
2023-02-03T10:25:25.264Z,100556.88
2023-02-03T10:30:45.884Z,100548.41
2023-02-03T10:35:58.061Z,100518.44
2023-02-03T10:41:05.020Z,100496.22
2023-02-03T10:46:11.388Z,100486.84
2023-02-03T10:51:27.924Z,100466.28
2023-02-03T10:56:38.764Z,100439.72
2023-02-03T11:01:49.323Z,100417.47
2023-02-03T11:07:02.757Z,100411.50
2023-02-03T11:12:15.054Z,100402.09
2023-02-03T11:17:26.604Z,100384.16
2023-02-03T11:22:38.756Z,100354.22
2023-02-03T11:27:45.625Z,100359.38
2023-02-03T11:32:53.105Z,100330.31
2023-02-03T11:38:04.070Z,100327.78
2023-02-03T11:43:19.671Z,100311.50
2023-02-03T11:48:33.409Z,100299.47
2023-02-03T11:54:01.442Z,100292.66
2023-02-03T11:59:45.891Z,100268.63
2023-02-03T12:05:19.528Z,100253.22
2023-02-03T12:10:42.762Z,100247.22
2023-02-03T12:16:12.100Z,100237.78
2023-02-03T12:21:39.234Z,100218.06
2023-02-03T12:27:00.880Z,100200.94
2023-02-03T12:32:17.501Z,100176.91
2023-02-03T12:37:29.751Z,100151.16
2023-02-03T12:42:43.988Z,100141.69
2023-02-03T12:47:57.168Z,100124.56
2023-02-03T12:53:11.881Z,100103.09
2023-02-03T12:58:26.861Z,100082.53
2023-02-03T13:03:44.481Z,100069.66
2023-02-03T13:08:59.965Z,100044.84
2023-02-03T13:14:19.762Z,100024.25
2023-02-03T13:19:32.242Z,100009.72
2023-02-03T13:24:39.764Z,99988.28
2023-02-03T13:30:13.792Z,99973.69
2023-02-03T13:35:42.635Z,99954.03
2023-02-03T13:41:02.843Z,99936.91
2023-02-03T13:46:22.914Z,99929.22
2023-02-03T13:51:35.312Z,99917.19
2023-02-03T13:56:42.957Z,99897.50
2023-02-03T14:01:50.811Z,99888.97
2023-02-03T14:07:09.513Z,99870.16
2023-02-03T14:12:44.076Z,99854.72
2023-02-03T14:18:24.588Z,99845.25
2023-02-03T14:23:45.905Z,99839.28
2023-02-03T14:28:54.015Z,99825.59
2023-02-03T14:34:17.626Z,99812.72
2023-02-03T14:40:27.865Z,99817.00
2023-02-03T14:46:02.648Z,99805.88
2023-02-03T14:51:25.582Z,99798.19
2023-02-03T14:57:04.393Z,99781.06
2023-02-03T15:02:21.393Z,99767.34
2023-02-03T15:07:45.057Z,99763.06
2023-02-03T15:12:54.383Z,99748.50
2023-02-03T15:18:20.957Z,99752.81
2023-02-03T15:23:30.970Z,99744.25
2023-02-03T15:28:37.945Z,99734.81
2023-02-03T15:33:45.121Z,99739.09
2023-02-03T15:39:01.301Z,99733.97
2023-02-03T15:44:15.741Z,99725.44
2023-02-03T15:49:29.053Z,99718.59
2023-02-03T15:54:43.922Z,99715.16
2023-02-03T15:59:56.046Z,99716.00
2023-02-03T16:05:07.866Z,99710.91
2023-02-03T16:10:30.578Z,99704.94
2023-02-03T16:15:37.949Z,99696.34
2023-02-03T16:20:52.079Z,99692.94
2023-02-03T16:26:21.096Z,99695.50
2023-02-03T16:31:44.851Z,99692.06
2023-02-03T16:37:09.740Z,99683.53
2023-02-03T16:42:37.672Z,99681.81
2023-02-03T16:48:03.255Z,99675.81
2023-02-03T16:53:20.189Z,99675.84
2023-02-03T16:58:28.598Z,99673.28
2023-02-03T17:03:38.148Z,99679.25
2023-02-03T17:08:45.584Z,99685.25
2023-02-03T17:13:54.409Z,99675.00
2023-02-03T17:19:01.229Z,99688.66
2023-02-03T17:24:09.285Z,99698.94
2023-02-03T17:29:18.707Z,99706.63
2023-02-03T17:34:25.711Z,99704.91
2023-02-03T17:55:50.327Z,99734.84
2023-02-03T18:00:59.865Z,99741.72
2023-02-03T18:06:08.663Z,99755.38
2023-02-03T18:11:18.769Z,99769.06
2023-02-03T18:16:34.254Z,99757.94
2023-02-03T18:21:43.481Z,99767.31
2023-02-03T18:26:57.170Z,99766.50
2023-02-03T18:32:08.169Z,99777.63
2023-02-03T18:37:17.527Z,99778.50
2023-02-03T18:42:28.532Z,99782.78
2023-02-03T18:47:39.979Z,99797.28
2023-02-03T18:52:56.520Z,99798.97
2023-02-03T18:58:05.625Z,99796.41
2023-02-03T19:03:16.209Z,99796.41
2023-02-03T19:08:24.780Z,99802.41
2023-02-03T19:13:35.170Z,99801.56
2023-02-03T19:18:49.465Z,99799.00
2023-02-03T19:23:59.872Z,99808.41
2023-02-03T19:29:10.494Z,99818.66
2023-02-03T19:34:24.272Z,99812.69
2023-02-03T19:39:37.071Z,99814.41
2023-02-03T19:44:48.373Z,99818.69
2023-02-03T19:49:59.880Z,99823.78
2023-02-03T19:55:13.099Z,99832.34
2023-02-03T20:00:26.407Z,99843.41
2023-02-03T20:05:37.800Z,99847.72
2023-02-03T20:10:46.964Z,99858.78
2023-02-03T20:15:57.732Z,99868.22
2023-02-03T20:21:08.976Z,99869.00
2023-02-03T20:26:19.676Z,99845.88
2023-02-03T20:31:29.554Z,99856.13
2023-02-03T20:36:40.910Z,99860.44
2023-02-03T20:41:55.331Z,99874.97
2023-02-03T20:47:09.808Z,99888.63
2023-02-03T20:52:23.737Z,99910.00
2023-02-03T20:57:35.811Z,99923.69
2023-02-03T21:02:57.549Z,99937.38
2023-02-03T21:08:16.118Z,99939.91
2023-02-03T21:13:28.910Z,99939.03
2023-02-03T21:18:41.742Z,99933.88
2023-02-03T21:23:55.037Z,99937.31
2023-02-03T21:29:05.648Z,99945.81
2023-02-03T21:34:30.070Z,99949.25
2023-02-03T21:39:41.500Z,99951.78
2023-02-03T21:44:50.098Z,99957.72
2023-02-03T21:50:02.363Z,99978.25
2023-02-03T21:55:19.717Z,99999.56
2023-02-03T22:00:48.762Z,100018.31
2023-02-03T22:06:06.410Z,100031.16
2023-02-03T22:11:16.460Z,100043.03
2023-02-03T22:16:24.270Z,100027.69
2023-02-03T22:21:31.140Z,100031.91
2023-02-03T22:26:40.099Z,100046.38
2023-02-03T22:31:46.942Z,100040.38
2023-02-03T22:36:53.542Z,100056.47
2023-02-03T22:42:01.930Z,100058.22
2023-02-03T22:47:08.450Z,100070.19
2023-02-03T22:52:15.763Z,100074.31
2023-02-03T22:57:24.001Z,100087.94
2023-02-03T23:02:30.657Z,100102.50
2023-02-03T23:07:38.789Z,100107.50
2023-02-03T23:12:46.807Z,100127.94
2023-02-03T23:17:53.349Z,100155.16
2023-02-03T23:23:00.195Z,100166.16
2023-02-03T23:28:08.359Z,100188.28
2023-02-03T23:33:15.136Z,100189.03
2023-02-03T23:38:21.612Z,100200.19
2023-02-03T23:43:29.440Z,100213.69
2023-02-03T23:48:35.776Z,100235.06
2023-02-03T23:53:41.980Z,100254.63
2023-02-03T23:58:49.498Z,100273.34
